Time;durP1;ratioP1;P1;durP2;ratioP2;P2;SDS_P1;SDS_P2;PMS_P1;PMS_P2;Temp;Humidity;BMP_temperature;BMP_pressure;BME280_temperature;BME280_humidity;BME280_pressure;Samples;Min_cycle;Max_cycle;Signal;HPM_P1;HPM_P2
2021/12/16 00:46:58;;;;;;;18.48;12.07;;;;;;;1.20;76.37;95305.33;828380;71;33025;-79
2021/12/16 02:01:18;;;;;;;16.45;10.48;;;;;;;1.17;75.48;95255.34;826615;71;32484;-81
2021/12/16 02:31:55;;;;;;;16.60;9.43;;;;;;;1.45;75.46;95255.95;819296;71;32810;-79
2021/12/16 03:01:12;;;;;;;13.53;9.13;;;;;;;1.61;75.24;95252.83;822315;71;30359;-80
2021/12/16 03:32:05;;;;;;;16.48;10.15;;;;;;;1.71;75.28;95242.01;806947;72;32822;-82
2021/12/16 03:46:42;;;;;;;15.03;9.95;;;;;;;1.90;75.08;95255.75;834294;71;32811;-80
2021/12/16 04:16:45;;;;;;;14.75;9.95;;;;;;;1.98;74.99;95241.23;833620;71;32727;-77
2021/12/16 04:31:37;;;;;;;15.05;10.40;;;;;;;2.04;75.16;95237.01;828817;71;33295;-77
2021/12/16 05:16:09;;;;;;;17.23;10.15;;;;;;;2.12;75.79;95238.80;819824;71;29411;-80
2021/12/16 05:31:10;;;;;;;14.15;10.38;;;;;;;2.15;76.16;95240.97;820598;71;28833;-79
2021/12/16 05:46:09;;;;;;;13.45;9.55;;;;;;;2.43;75.61;95240.16;820645;71;28832;-81
2021/12/16 06:01:23;;;;;;;16.25;10.40;;;;;;;2.53;75.19;95238.63;819264;71;32301;-78
2021/12/16 06:31:15;;;;;;;15.10;9.95;;;;;;;2.55;74.37;95240.48;836537;70;32320;-81
2021/12/16 06:46:12;;;;;;;12.80;9.30;;;;;;;2.54;74.06;95232.45;828839;71;28701;-79
2021/12/16 07:01:16;;;;;;;11.80;8.00;;;;;;;2.56;73.86;95231.72;828666;71;29238;-80
2021/12/16 07:16:12;;;;;;;10.95;8.05;;;;;;;2.77;73.19;95238.22;835144;71;29320;-79
2021/12/16 07:31:09;;;;;;;9.73;7.90;;;;;;;3.06;71.68;95238.93;834367;71;28683;-77
2021/12/16 07:46:16;;;;;;;9.93;7.22;;;;;;;3.34;70.16;95246.10;827579;71;31778;-78
2021/12/16 08:01:17;;;;;;;8.13;5.97;;;;;;;3.52;68.90;95244.71;819923;71;31841;-78
2021/12/16 08:16:33;;;;;;;8.55;6.40;;;;;;;3.71;68.64;95257.58;817887;71;31835;-78
2021/12/16 08:31:10;;;;;;;7.80;6.40;;;;;;;3.90;68.33;95254.39;821837;71;28733;-79
2021/12/16 08:46:12;;;;;;;7.25;6.25;;;;;;;4.16;67.59;95257.03;821029;71;29142;-80
2021/12/16 09:01:18;;;;;;;6.85;5.58;;;;;;;4.29;66.84;95238.58;827390;71;32789;-81
2021/12/16 09:16:13;;;;;;;7.30;5.42;;;;;;;4.41;66.12;95218.56;819501;71;29766;-79
2021/12/16 09:31:22;;;;;;;5.50;4.78;;;;;;;4.54;65.62;95212.33;823307;71;32811;-79
2021/12/16 09:46:26;;;;;;;5.60;5.10;;;;;;;4.52;65.49;95206.57;824260;71;33419;-79
2021/12/16 10:01:10;;;;;;;6.67;5.78;;;;;;;4.54;66.00;95203.72;822073;71;30406;-79
2021/12/16 10:31:14;;;;;;;9.03;7.00;;;;;;;4.88;66.83;95157.80;828470;71;29760;-80
2021/12/16 10:46:16;;;;;;;10.70;7.83;;;;;;;5.11;66.29;95145.18;828295;71;30079;-79
2021/12/16 11:01:38;;;;;;;8.68;7.42;;;;;;;4.98;67.44;95141.06;827331;71;33133;-79
2021/12/16 11:16:13;;;;;;;8.18;7.30;;;;;;;4.66;68.40;95130.91;827835;71;32588;-79
2021/12/16 11:31:11;;;;;;;10.40;6.92;;;;;;;4.51;68.38;95130.92;828133;71;29644;-79
2021/12/16 11:46:33;;;;;;;11.60;7.97;;;;;;;4.38;68.96;95137.72;828321;71;33192;-79
2021/12/16 12:01:20;;;;;;;8.98;7.83;;;;;;;4.21;69.74;95131.16;827684;71;33180;-79
2021/12/16 12:16:17;;;;;;;8.03;7.03;;;;;;;4.06;70.55;95117.38;834163;71;32854;-78
2021/12/16 12:31:09;;;;;;;8.65;6.95;;;;;;;4.03;70.85;95126.13;823569;71;29752;-78
2021/12/16 12:46:15;;;;;;;9.55;8.13;;;;;;;3.91;71.03;95135.24;828380;71;32780;-77
2021/12/16 13:01:15;;;;;;;12.95;9.70;;;;;;;3.76;71.41;95112.38;828670;71;32664;-77
2021/12/16 13:31:50;;;;;;;12.95;8.63;;;;;;;3.80;71.65;95122.58;828463;71;29700;-75
2021/12/16 14:46:11;;;;;;;15.28;10.10;;;;;;;3.36;72.07;95149.41;834398;71;29851;-78
2021/12/16 15:01:20;;;;;;;16.93;11.90;;;;;;;3.35;72.73;95158.22;834840;71;32747;-77
2021/12/16 15:16:48;;;;;;;13.32;9.80;;;;;;;3.04;71.95;95126.90;827626;71;32078;-80
2021/12/16 15:32:01;;;;;;;;;;;;;;;;;;;;;
2021/12/16 15:46:47;;;;;;;20.80;12.43;;;;;;;3.01;73.40;95174.28;824365;71;32839;-80
2021/12/16 16:31:50;;;;;;;17.40;12.13;;;;;;;2.98;73.48;95183.01;832503;70;32876;-81
2021/12/16 17:31:50;;;;;;;19.75;12.33;;;;;;;3.11;71.58;95181.52;792923;73;32975;-83
2021/12/16 17:46:49;;;;;;;16.97;12.05;;;;;;;3.67;71.45;95169.04;824476;71;32800;-78
2021/12/16 18:01:55;;;;;;;15.75;11.55;;;;;;;3.51;70.79;95182.18;833903;71;32791;-79
2021/12/16 18:16:14;;;;;;;15.90;9.80;;;;;;;3.45;70.31;95193.95;828047;71;30179;-78
2021/12/16 18:31:53;;;;;;;15.80;11.08;;;;;;;3.30;70.78;95174.43;791435;74;32892;-78
2021/12/16 18:46:48;;;;;;;16.52;11.48;;;;;;;3.36;71.32;95178.72;823727;71;33380;-81
2021/12/16 19:31:26;;;;;;;16.85;11.70;;;;;;;3.36;72.35;95179.23;826749;71;32806;-79
2021/12/16 19:46:24;;;;;;;17.48;11.15;;;;;;;3.43;72.56;95185.11;824158;71;32829;-78
2021/12/16 20:01:36;;;;;;;15.45;11.00;;;;;;;3.40;72.94;95183.73;821268;71;33427;-77
2021/12/16 20:16:20;;;;;;;16.45;11.15;;;;;;;3.44;73.13;95174.22;819740;71;32723;-79
2021/12/16 20:31:15;;;;;;;18.00;12.40;;;;;;;3.37;73.80;95156.19;818048;71;31516;-78
2021/12/16 20:46:52;;;;;;;;;;;;;;;;;;;;;
2021/12/16 21:16:25;;;;;;;15.88;11.08;;;;;;;3.54;74.18;95177.83;827653;71;31607;-80
2021/12/16 21:31:24;;;;;;;18.80;11.88;;;;;;;3.60;74.25;95205.97;820646;71;31824;-79
2021/12/16 21:46:56;;;;;;;17.85;13.22;;;;;;;3.59;74.65;95188.33;815512;72;31792;-81
2021/12/16 22:01:38;;;;;;;20.17;13.83;;;;;;;3.61;74.72;95156.98;820543;71;31824;-77
2021/12/16 22:16:38;;;;;;;20.88;13.22;;;;;;;3.60;74.80;95144.48;833716;71;31778;-76
2021/12/16 22:31:29;;;;;;;17.90;11.83;;;;;;;3.51;75.24;95130.30;821708;71;32312;-78
2021/12/16 22:46:35;;;;;;;16.42;11.75;;;;;;;3.48;75.62;95145.00;827051;71;31792;-76
2021/12/16 23:01:35;;;;;;;19.52;12.88;;;;;;;;;;833986;71;31868;-79
2021/12/16 23:31:51;;;;;;;;;;;;;;;;;;;;;
2021/12/16 23:46:32;;;;;;;15.23;10.38;;;;;;;3.57;75.46;95098.26;826656;71;30404;-78
